Time;durP1;ratioP1;P1;durP2;ratioP2;P2;SDS_P1;SDS_P2;PMS_P1;PMS_P2;Temp;Humidity;BMP_temperature;BMP_pressure;BME280_temperature;BME280_humidity;BME280_pressure;Samples;Min_cycle;Max_cycle;Signal;HPM_P1;HPM_P2
2022/05/08 00:00:33;;;;;;;4.20;3.77;;;13.30;99.90;;;;;;7366209;19;20425;-77
2022/05/08 00:02:59;;;;;;;4.53;4.07;;;13.20;99.90;;;;;;7371380;19;20328;-76
2022/05/08 00:05:25;;;;;;;4.40;4.00;;;12.90;99.90;;;;;;7367329;19;20361;-77
2022/05/08 00:07:50;;;;;;;4.10;3.42;;;12.90;99.90;;;;;;7372636;19;20336;-78
2022/05/08 00:10:16;;;;;;;4.07;3.67;;;13.00;99.90;;;;;;7371570;19;20354;-77
2022/05/08 00:12:42;;;;;;;4.05;3.65;;;12.90;99.90;;;;;;7372675;19;21449;-77
2022/05/08 00:15:08;;;;;;;4.47;3.92;;;12.90;99.90;;;;;;7369774;19;20332;-76
2022/05/08 00:17:34;;;;;;;3.87;3.50;;;12.90;99.90;;;;;;7378688;19;20789;-77
2022/05/08 00:20:06;;;;;;;3.50;3.20;;;12.90;99.90;;;;;;7367545;19;20340;-77
2022/05/08 00:22:32;;;;;;;4.43;3.40;;;12.90;99.90;;;;;;7372646;19;20407;-76
2022/05/08 00:25:02;;;;;;;3.78;3.47;;;13.00;99.90;;;;;;7367867;19;21480;-77
2022/05/08 00:27:28;;;;;;;3.08;2.80;;;13.10;99.90;;;;;;7371401;19;20370;-77
2022/05/08 00:29:53;;;;;;;3.20;2.90;;;13.20;99.90;;;;;;7369497;19;20325;-76
2022/05/08 00:32:20;;;;;;;3.57;3.27;;;13.20;99.90;;;;;;7374125;19;20349;-77
2022/05/08 00:34:46;;;;;;;3.20;3.00;;;13.10;99.90;;;;;;7370885;19;20391;-76
2022/05/08 00:37:12;;;;;;;3.95;2.90;;;13.00;99.90;;;;;;7374408;19;20345;-76
2022/05/08 00:39:38;;;;;;;3.60;2.83;;;13.00;99.90;;;;;;7377120;19;20328;-79
2022/05/08 00:42:03;;;;;;;3.03;2.83;;;13.10;99.90;;;;;;7370743;19;20381;-77
2022/05/08 00:44:29;;;;;;;3.33;3.13;;;13.20;99.90;;;;;;7370539;19;20348;-78
2022/05/08 00:46:55;;;;;;;2.70;2.50;;;13.20;99.90;;;;;;7368973;19;20371;-77
2022/05/08 00:49:20;;;;;;;3.47;2.90;;;13.20;99.90;;;;;;7372216;19;20869;-77
2022/05/08 00:51:48;;;;;;;2.80;2.60;;;13.00;99.90;;;;;;7374930;19;20317;-78
2022/05/08 00:54:14;;;;;;;2.80;2.60;;;13.10;99.90;;;;;;7375506;19;20365;-77
2022/05/08 00:56:40;;;;;;;3.10;2.80;;;13.00;99.90;;;;;;7376899;19;20512;-77
2022/05/08 00:59:06;;;;;;;3.33;3.00;;;13.00;99.90;;;;;;7376274;19;20355;-78
2022/05/08 01:01:31;;;;;;;2.80;2.60;;;13.00;99.90;;;;;;7374543;19;20340;-77
2022/05/08 01:03:57;;;;;;;3.30;3.00;;;13.00;99.90;;;;;;7376151;19;20314;-77
2022/05/08 01:06:22;;;;;;;2.57;2.33;;;13.00;99.90;;;;;;7374584;19;20317;-77
2022/05/08 01:08:49;;;;;;;2.40;2.20;;;13.10;99.90;;;;;;7375214;19;20406;-77
2022/05/08 01:11:14;;;;;;;2.83;2.63;;;13.10;99.90;;;;;;7375193;19;20700;-77
2022/05/08 01:13:41;;;;;;;2.87;2.60;;;13.10;99.90;;;;;;7374589;19;20881;-77
2022/05/08 01:16:16;;;;;;;3.10;2.80;;;13.10;99.90;;;;;;7373280;19;20360;-76
2022/05/08 01:18:43;;;;;;;2.95;2.67;;;13.10;99.90;;;;;;7378497;19;20325;-77
2022/05/08 01:21:10;;;;;;;2.60;2.40;;;13.10;99.90;;;;;;7376315;19;20337;-76
2022/05/08 01:23:38;;;;;;;2.30;2.10;;;13.20;99.90;;;;;;7371606;19;20433;-77
2022/05/08 01:26:04;;;;;;;2.58;2.38;;;13.20;99.90;;;;;;7371763;19;20420;-78
2022/05/08 01:28:29;;;;;;;2.55;2.30;;;13.20;99.90;;;;;;7376968;19;20521;-77
2022/05/08 01:30:55;;;;;;;2.58;2.38;;;13.30;99.90;;;;;;7375318;19;20431;-76
2022/05/08 01:33:21;;;;;;;3.43;3.13;;;13.20;99.90;;;;;;7375113;19;20339;-76
2022/05/08 01:35:49;;;;;;;3.03;2.73;;;13.00;99.90;;;;;;7375186;19;20312;-77
2022/05/08 01:38:15;;;;;;;2.85;2.65;;;12.90;99.90;;;;;;7375235;19;20345;-77
2022/05/08 01:40:41;;;;;;;2.70;2.50;;;12.90;99.90;;;;;;7375470;19;20874;-77
2022/05/08 01:43:07;;;;;;;2.90;2.70;;;12.80;99.90;;;;;;7373647;19;20321;-77
2022/05/08 01:45:34;;;;;;;2.88;2.67;;;12.80;99.90;;;;;;7374054;19;20820;-77
2022/05/08 01:50:44;;;;;;;2.70;2.50;;;12.80;99.90;;;;;;7273742;19;2004494;-76
2022/05/08 01:53:09;;;;;;;3.17;2.83;;;12.90;99.90;;;;;;7374664;19;20513;-77
2022/05/08 01:55:35;;;;;;;2.97;2.60;;;13.00;99.90;;;;;;7380210;19;20345;-76
2022/05/08 01:58:01;;;;;;;2.50;2.30;;;13.00;99.90;;;;;;7377031;19;20332;-76
2022/05/08 02:00:27;;;;;;;2.67;2.47;;;13.10;99.90;;;;;;7372930;19;20602;-77
2022/05/08 02:02:53;;;;;;;2.85;2.65;;;13.10;99.90;;;;;;7371850;19;20329;-76
2022/05/08 02:05:19;;;;;;;3.22;2.92;;;13.10;99.90;;;;;;7375039;19;20404;-77
2022/05/08 02:07:45;;;;;;;3.10;2.40;;;13.10;99.90;;;;;;7378098;19;20437;-77
2022/05/08 02:10:14;;;;;;;2.42;2.22;;;13.10;99.90;;;;;;7373948;19;20348;-77
2022/05/08 02:12:40;;;;;;;2.42;2.22;;;13.20;99.90;;;;;;7374029;19;20332;-78
2022/05/08 02:15:06;;;;;;;2.83;2.63;;;13.20;99.90;;;;;;7370260;19;20347;-77
2022/05/08 02:17:32;;;;;;;3.45;3.08;;;13.20;99.90;;;;;;7377453;19;20816;-77
2022/05/08 02:19:58;;;;;;;3.60;3.17;;;13.00;99.90;;;;;;7375721;19;20332;-77
2022/05/08 02:22:23;;;;;;;3.80;3.50;;;12.90;99.90;;;;;;7374289;19;20332;-76
2022/05/08 02:24:51;;;;;;;3.33;3.07;;;12.80;99.90;;;;;;7372190;19;20364;-77
2022/05/08 02:27:17;;;;;;;3.55;3.25;;;12.60;99.90;;;;;;7375791;19;20348;-77
2022/05/08 02:29:42;;;;;;;3.30;3.00;;;12.50;99.90;;;;;;7373852;19;20765;-76
2022/05/08 02:32:08;;;;;;;3.33;3.03;;;12.60;99.90;;;;;;7375562;19;20360;-78
2022/05/08 02:34:34;;;;;;;3.20;2.80;;;12.60;99.90;;;;;;7371209;19;21358;-77
2022/05/08 02:36:59;;;;;;;3.33;3.03;;;12.60;99.90;;;;;;7372465;19;20353;-77
2022/05/08 02:39:25;;;;;;;2.93;2.70;;;12.60;99.90;;;;;;7375971;19;20348;-79
2022/05/08 02:41:50;;;;;;;3.13;2.70;;;12.60;99.90;;;;;;7374314;19;20356;-78
2022/05/08 02:44:16;;;;;;;3.25;2.95;;;12.60;99.90;;;;;;7371561;19;20336;-77
2022/05/08 02:46:42;;;;;;;3.33;3.03;;;12.70;99.90;;;;;;7378265;19;20312;-77
2022/05/08 02:49:07;;;;;;;3.15;2.85;;;12.70;99.90;;;;;;7375538;19;20377;-77
2022/05/08 02:51:33;;;;;;;3.10;2.80;;;12.70;99.90;;;;;;7372373;19;21016;-76
2022/05/08 02:53:59;;;;;;;2.90;2.70;;;12.70;99.90;;;;;;7374554;19;20903;-76
2022/05/08 02:59:10;;;;;;;3.38;3.08;;;12.70;99.90;;;;;;7373215;19;20353;-77
2022/05/08 03:01:36;;;;;;;4.05;2.88;;;12.70;99.90;;;;;;7372485;19;20715;-77
2022/05/08 03:04:04;;;;;;;3.20;2.90;;;12.80;99.90;;;;;;7371295;19;20441;-77
2022/05/08 03:06:30;;;;;;;3.35;3.00;;;12.70;99.90;;;;;;7378468;19;20352;-77
2022/05/08 03:08:55;;;;;;;3.50;3.20;;;12.70;99.90;;;;;;7377232;19;20396;-77
2022/05/08 03:11:28;;;;;;;3.83;3.10;;;12.70;99.90;;;;;;7373988;19;20694;-77
2022/05/08 03:13:54;;;;;;;4.18;3.30;;;12.70;99.90;;;;;;7368866;19;20361;-78
2022/05/08 03:16:21;;;;;;;3.05;2.78;;;12.70;99.90;;;;;;7370793;19;20396;-77
2022/05/08 03:18:47;;;;;;;3.20;2.95;;;12.70;99.90;;;;;;7374554;19;20376;-78
2022/05/08 03:21:13;;;;;;;3.30;3.00;;;12.70;99.90;;;;;;7367797;19;20715;-77
2022/05/08 03:23:39;;;;;;;3.13;2.92;;;12.70;99.90;;;;;;7353986;19;20328;-77
2022/05/08 03:26:05;;;;;;;3.40;3.10;;;12.60;99.90;;;;;;7371266;19;20328;-77
2022/05/08 03:28:33;;;;;;;3.30;3.10;;;12.70;99.90;;;;;;7372414;19;20374;-77
2022/05/08 03:30:59;;;;;;;3.58;2.83;;;12.70;99.90;;;;;;7371280;19;20337;-77
2022/05/08 03:33:28;;;;;;;3.17;2.93;;;12.80;99.90;;;;;;7374964;19;20345;-77
2022/05/08 03:35:54;;;;;;;3.70;3.25;;;12.90;99.90;;;;;;7373493;19;20353;-78
2022/05/08 03:38:19;;;;;;;3.40;3.10;;;12.70;99.90;;;;;;7371380;19;20357;-78
2022/05/08 03:40:45;;;;;;;3.57;3.27;;;12.90;99.90;;;;;;7371566;19;20305;-77
2022/05/08 03:43:10;;;;;;;4.03;3.63;;;12.70;99.90;;;;;;7371086;19;21137;-78
2022/05/08 03:45:36;;;;;;;3.90;3.58;;;12.70;99.90;;;;;;7374365;19;20427;-77
2022/05/08 03:48:02;;;;;;;4.00;3.47;;;12.60;99.90;;;;;;7374513;19;20316;-77
2022/05/08 03:50:28;;;;;;;4.25;3.30;;;12.70;99.90;;;;;;7369422;19;20344;-77
2022/05/08 03:52:54;;;;;;;4.23;3.80;;;12.60;99.90;;;;;;7370970;19;20343;-77
2022/05/08 03:55:19;;;;;;;4.28;3.88;;;12.60;99.90;;;;;;7369350;19;20336;-77
2022/05/08 03:57:45;;;;;;;3.80;3.50;;;12.70;99.90;;;;;;7371652;19;20352;-77
2022/05/08 04:00:11;;;;;;;3.85;3.50;;;12.70;99.90;;;;;;7369520;19;20301;-76
2022/05/08 04:02:40;;;;;;;4.00;3.40;;;12.70;99.90;;;;;;7371714;19;20416;-77
2022/05/08 04:05:07;;;;;;;3.30;3.10;;;12.70;99.90;;;;;;7368892;19;20862;-77
2022/05/08 04:07:32;;;;;;;5.32;4.35;;;12.80;99.90;;;;;;7372170;19;20667;-77
2022/05/08 04:09:58;;;;;;;4.00;3.30;;;12.80;99.90;;;;;;7368607;19;20345;-76
2022/05/08 04:12:24;;;;;;;4.07;3.67;;;12.80;99.90;;;;;;7371576;19;20450;-78
2022/05/08 04:14:50;;;;;;;3.83;3.53;;;12.90;99.90;;;;;;7367842;19;20891;-77
2022/05/08 04:17:16;;;;;;;4.00;3.60;;;12.80;99.90;;;;;;7370728;19;20369;-77
2022/05/08 04:19:43;;;;;;;3.53;3.22;;;12.90;99.90;;;;;;7370259;19;20345;-77
2022/05/08 04:24:53;;;;;;;5.83;4.40;;;13.10;99.90;;;;;;7268026;19;2004462;-77
2022/05/08 04:27:22;;;;;;;3.88;3.58;;;13.00;99.90;;;;;;7377226;19;20355;-77
2022/05/08 04:29:47;;;;;;;5.22;4.00;;;13.00;99.90;;;;;;7375820;19;20333;-77
2022/05/08 04:32:13;;;;;;;4.00;3.60;;;13.00;99.90;;;;;;7379063;19;20300;-77
2022/05/08 04:34:39;;;;;;;3.93;3.63;;;13.10;99.90;;;;;;7375191;19;20340;-77
2022/05/08 04:37:04;;;;;;;3.90;3.60;;;13.10;99.90;;;;;;7375672;19;20335;-78
2022/05/08 04:39:30;;;;;;;4.23;3.90;;;13.20;99.90;;;;;;7378267;19;20320;-77
2022/05/08 04:41:55;;;;;;;5.73;4.70;;;13.30;99.90;;;;;;7376477;19;20946;-77
2022/05/08 04:44:21;;;;;;;3.72;3.40;;;13.20;99.90;;;;;;7373953;19;20336;-76
2022/05/08 04:46:47;;;;;;;4.60;3.87;;;13.20;99.90;;;;;;7375849;19;20345;-77
2022/05/08 04:49:12;;;;;;;4.20;3.80;;;13.20;99.90;;;;;;7376468;19;20372;-77
2022/05/08 04:51:38;;;;;;;4.80;3.60;;;13.20;99.90;;;;;;7376171;19;20333;-78
2022/05/08 04:54:04;;;;;;;3.78;3.47;;;13.20;99.90;;;;;;7371405;19;20371;-78
2022/05/08 04:56:30;;;;;;;4.53;3.70;;;13.20;99.90;;;;;;7376182;19;20382;-77
2022/05/08 04:58:55;;;;;;;5.03;4.20;;;13.40;99.90;;;;;;7377570;19;20371;-77
2022/05/08 05:01:21;;;;;;;4.30;3.90;;;13.40;99.90;;;;;;7375957;19;20360;-77
2022/05/08 05:03:48;;;;;;;4.00;3.70;;;13.40;99.90;;;;;;7375995;19;20316;-77
2022/05/08 05:06:13;;;;;;;3.72;3.42;;;13.40;99.90;;;;;;7376012;19;20373;-76
2022/05/08 05:08:39;;;;;;;4.00;3.60;;;13.50;99.90;;;;;;7377751;19;20345;-77
2022/05/08 05:11:08;;;;;;;4.63;3.90;;;13.50;99.90;;;;;;7377449;19;20353;-79
2022/05/08 05:13:37;;;;;;;3.90;3.60;;;13.60;99.90;;;;;;7376378;19;20353;-77
2022/05/08 05:16:06;;;;;;;4.97;3.70;;;13.70;99.90;;;;;;7371750;19;20321;-77
2022/05/08 05:18:31;;;;;;;4.10;3.70;;;13.80;99.90;;;;;;7376376;19;20345;-77
2022/05/08 05:20:57;;;;;;;4.47;3.80;;;13.80;99.90;;;;;;7371110;19;20339;-77
2022/05/08 05:23:23;;;;;;;4.73;3.93;;;13.80;99.90;;;;;;7372033;19;20356;-77
2022/05/08 05:25:49;;;;;;;4.25;3.85;;;13.80;99.90;;;;;;7374862;19;20341;-79
2022/05/08 05:28:16;;;;;;;4.80;3.97;;;13.80;99.90;;;;;;7376534;19;20451;-76
2022/05/08 05:30:41;;;;;;;4.88;3.95;;;13.90;99.90;;;;;;7375587;19;20373;-77
2022/05/08 05:33:07;;;;;;;3.90;3.60;;;13.90;99.90;;;;;;7373993;19;20710;-76
2022/05/08 05:35:38;;;;;;;3.80;3.45;;;14.00;99.90;;;;;;7371411;19;20374;-77
2022/05/08 05:38:04;;;;;;;3.92;3.63;;;14.00;99.90;;;;;;7373188;19;20345;-78
2022/05/08 05:40:30;;;;;;;5.50;4.40;;;14.00;99.90;;;;;;7375383;19;20746;-76
2022/05/08 05:42:57;;;;;;;4.38;3.70;;;14.00;99.90;;;;;;7372669;19;20385;-77
2022/05/08 05:45:23;;;;;;;3.92;3.53;;;14.10;99.90;;;;;;7378371;19;20343;-77
2022/05/08 05:47:49;;;;;;;4.50;4.10;;;14.10;99.90;;;;;;7378827;19;20305;-77
2022/05/08 05:50:16;;;;;;;4.20;3.80;;;14.10;99.90;;;;;;7380031;19;20349;-77
2022/05/08 05:52:41;;;;;;;3.77;3.47;;;14.10;99.90;;;;;;7379805;19;20436;-77
2022/05/08 05:55:07;;;;;;;5.25;4.70;;;14.20;99.90;;;;;;7378199;19;20308;-77
2022/05/08 05:57:34;;;;;;;4.45;4.05;;;14.10;99.90;;;;;;7380162;19;20341;-77
2022/05/08 05:59:59;;;;;;;4.30;3.90;;;14.10;99.90;;;;;;7379671;19;20841;-79
2022/05/08 06:02:25;;;;;;;4.50;4.10;;;14.20;99.90;;;;;;7388675;19;20363;-79
2022/05/08 06:04:51;;;;;;;4.28;3.88;;;14.20;99.90;;;;;;7378885;19;20333;-77
2022/05/08 06:07:16;;;;;;;4.03;3.60;;;14.20;99.90;;;;;;7383969;19;20340;-78
2022/05/08 06:09:42;;;;;;;3.38;3.10;;;14.30;99.90;;;;;;7380267;19;20414;-78
2022/05/08 06:12:07;;;;;;;5.40;4.25;;;14.40;99.90;;;;;;7371015;19;20416;-78
2022/05/08 06:14:33;;;;;;;4.67;3.90;;;14.40;99.90;;;;;;7371538;19;20346;-76
2022/05/08 06:16:59;;;;;;;4.60;4.10;;;14.40;99.90;;;;;;7371485;19;20332;-76
2022/05/08 06:19:24;;;;;;;4.30;3.90;;;14.40;99.90;;;;;;7377521;19;20356;-76
2022/05/08 06:21:50;;;;;;;4.57;3.80;;;14.40;99.90;;;;;;7369642;19;21249;-77
2022/05/08 06:24:15;;;;;;;4.32;3.60;;;14.50;99.90;;;;;;7374324;19;20332;-77
2022/05/08 06:26:41;;;;;;;4.47;4.07;;;14.50;99.90;;;;;;7373289;19;20983;-77
2022/05/08 06:29:07;;;;;;;4.25;3.85;;;14.60;99.90;;;;;;7371910;19;20344;-76
2022/05/08 06:31:32;;;;;;;3.93;3.63;;;14.60;99.90;;;;;;7372578;19;20343;-77
2022/05/08 06:33:58;;;;;;;4.27;3.87;;;14.60;99.90;;;;;;7371903;19;20340;-77
2022/05/08 06:36:25;;;;;;;5.90;4.70;;;14.70;99.90;;;;;;7371250;19;20349;-76
2022/05/08 06:38:51;;;;;;;3.97;3.58;;;14.70;99.90;;;;;;7374030;19;20860;-76
2022/05/08 06:41:17;;;;;;;4.30;3.80;;;14.80;99.90;;;;;;7373843;19;20348;-77
2022/05/08 06:43:44;;;;;;;4.30;3.90;;;14.90;99.90;;;;;;7372768;19;20337;-77
2022/05/08 06:46:12;;;;;;;5.90;4.00;;;15.00;99.90;;;;;;7372195;19;20340;-77
2022/05/08 06:48:39;;;;;;;4.53;4.13;;;15.00;99.90;;;;;;7373526;19;20400;-76
2022/05/08 06:51:04;;;;;;;4.63;3.72;;;15.10;99.90;;;;;;7373391;19;20359;-77
2022/05/08 06:53:30;;;;;;;4.18;3.78;;;15.10;99.90;;;;;;7374094;19;20991;-77
2022/05/08 06:55:56;;;;;;;3.85;3.47;;;15.20;99.90;;;;;;7368552;19;20426;-77
2022/05/08 06:58:22;;;;;;;4.47;4.03;;;15.30;99.90;;;;;;7371930;19;20427;-77
2022/05/08 07:03:31;;;;;;;5.03;3.83;;;15.50;99.90;;;;;;7266197;19;2004330;-76
2022/05/08 07:05:57;;;;;;;4.47;3.73;;;15.60;99.90;;;;;;7370390;19;20352;-77
2022/05/08 07:08:23;;;;;;;3.90;3.60;;;15.80;99.90;;;;;;7370477;19;20328;-77
2022/05/08 07:10:49;;;;;;;4.60;4.13;;;15.90;99.90;;;;;;7364369;19;20344;-77
2022/05/08 07:13:15;;;;;;;4.80;4.40;;;15.90;99.90;;;;;;7371061;19;20359;-77
2022/05/08 07:15:41;;;;;;;4.63;4.13;;;16.00;99.90;;;;;;7371232;19;21424;-77
2022/05/08 07:18:07;;;;;;;4.18;3.78;;;16.10;99.90;;;;;;7373416;19;20408;-77
2022/05/08 07:20:33;;;;;;;3.67;3.30;;;16.10;99.90;;;;;;7370189;19;20332;-77
2022/05/08 07:22:59;;;;;;;4.23;3.83;;;16.30;99.90;;;;;;7372598;19;20317;-77
2022/05/08 07:25:24;;;;;;;3.60;3.30;;;16.30;99.90;;;;;;7370474;19;20874;-76
2022/05/08 07:27:51;;;;;;;4.40;4.00;;;16.40;99.90;;;;;;7372495;19;20369;-77
2022/05/08 07:30:17;;;;;;;4.72;4.20;;;16.60;99.90;;;;;;7370990;19;20878;-77
2022/05/08 07:32:44;;;;;;;4.03;3.73;;;16.70;99.90;;;;;;7371390;19;20344;-79
2022/05/08 07:37:55;;;;;;;5.20;3.97;;;16.90;99.90;;;;;;7369722;19;20427;-79
2022/05/08 07:40:21;;;;;;;4.17;3.77;;;16.90;99.90;;;;;;7372127;19;21027;-79
2022/05/08 07:42:48;;;;;;;5.50;4.43;;;16.90;99.90;;;;;;7371960;19;20356;-78
2022/05/08 07:45:14;;;;;;;4.15;3.75;;;17.00;99.90;;;;;;7367209;19;20356;-78
2022/05/08 07:47:40;;;;;;;4.05;3.65;;;17.30;99.90;;;;;;7373312;19;20336;-77
2022/05/08 07:50:06;;;;;;;4.10;3.70;;;17.70;99.90;;;;;;7372992;19;20358;-76
2022/05/08 07:52:37;;;;;;;4.80;4.37;;;18.00;99.90;;;;;;7367762;19;20344;-76
2022/05/08 07:55:03;;;;;;;3.67;3.38;;;18.10;99.90;;;;;;7370345;19;20439;-77
2022/05/08 07:57:28;;;;;;;4.10;3.58;;;18.30;99.90;;;;;;7376809;19;20887;-77
2022/05/08 07:59:54;;;;;;;4.00;3.58;;;18.70;99.90;;;;;;7376317;19;20352;-78
2022/05/08 08:02:20;;;;;;;3.53;3.23;;;19.00;99.90;;;;;;7379793;19;20360;-76
2022/05/08 08:04:45;;;;;;;3.75;3.40;;;19.20;99.90;;;;;;7389542;19;20356;-76
2022/05/08 08:07:11;;;;;;;3.50;3.20;;;19.50;99.90;;;;;;7396506;19;20336;-76
2022/05/08 08:09:36;;;;;;;3.97;3.57;;;19.60;99.90;;;;;;7384032;19;20385;-76
2022/05/08 08:12:02;;;;;;;3.75;3.25;;;19.50;99.90;;;;;;7372879;19;20344;-77
2022/05/08 08:14:29;;;;;;;4.73;3.70;;;19.70;99.90;;;;;;7375565;19;20344;-76
2022/05/08 08:16:55;;;;;;;4.40;3.40;;;19.90;99.90;;;;;;7375040;19;20312;-77
2022/05/08 08:19:20;;;;;;;3.47;2.90;;;20.10;99.90;;;;;;7371617;19;20344;-77
2022/05/08 08:21:48;;;;;;;5.30;3.70;;;20.40;99.90;;;;;;7375466;19;20351;-80
2022/05/08 08:24:14;;;;;;;3.90;3.40;;;20.50;99.90;;;;;;7373680;19;20308;-77
2022/05/08 08:26:41;;;;;;;3.95;3.33;;;20.50;99.90;;;;;;7377654;19;20354;-77
2022/05/08 08:29:07;;;;;;;3.53;3.23;;;20.90;99.90;;;;;;7375456;19;20348;-77
2022/05/08 08:31:33;;;;;;;5.85;3.05;;;21.20;99.90;;;;;;7379421;19;20356;-77
2022/05/08 08:33:58;;;;;;;3.20;2.90;;;21.20;99.90;;;;;;7377295;19;20332;-77
2022/05/08 08:36:24;;;;;;;5.47;3.47;;;21.10;99.90;;;;;;7377381;19;20352;-78
2022/05/08 08:38:50;;;;;;;3.90;3.13;;;20.90;99.90;;;;;;7379544;19;20832;-77
2022/05/08 08:41:16;;;;;;;4.07;2.85;;;21.00;99.90;;;;;;7374666;19;21015;-77
2022/05/08 08:49:22;;;;;;;3.70;2.37;;;21.40;99.90;;;;;;7273951;19;2004372;-77
2022/05/08 08:51:48;;;;;;;3.00;2.70;;;21.40;99.90;;;;;;7370318;19;20332;-78
2022/05/08 08:54:15;;;;;;;2.47;2.28;;;21.00;99.90;;;;;;7374184;19;21311;-77
2022/05/08 08:56:40;;;;;;;2.90;2.70;;;21.00;99.90;;;;;;7379410;19;20703;-77
2022/05/08 08:59:06;;;;;;;2.67;2.42;;;21.10;99.90;;;;;;7377741;19;20356;-76
2022/05/08 09:01:33;;;;;;;3.30;2.45;;;21.00;99.90;;;;;;7378121;19;20342;-77
2022/05/08 09:04:00;;;;;;;2.35;2.15;;;21.20;99.90;;;;;;7377055;19;20332;-77
2022/05/08 09:06:41;;;;;;;2.40;2.20;;;21.40;99.90;;;;;;7378414;19;20341;-77
2022/05/08 09:09:27;;;;;;;3.08;2.58;;;21.90;99.90;;;;;;7380763;19;20353;-77
2022/05/08 09:11:55;;;;;;;2.83;2.45;;;22.00;99.90;;;;;;7378254;19;20346;-77
2022/05/08 09:14:28;;;;;;;3.93;2.33;;;22.00;99.90;;;;;;7378137;19;20344;-77
2022/05/08 09:16:53;;;;;;;2.63;2.42;;;22.20;99.90;;;;;;7378714;19;20324;-78
2022/05/08 09:19:34;;;;;;;4.50;2.15;;;22.30;99.90;;;;;;7381196;19;20374;-78
2022/05/08 09:22:01;;;;;;;2.90;2.60;;;22.30;99.90;;;;;;7381100;19;20941;-77
2022/05/08 09:24:26;;;;;;;2.53;2.33;;;22.10;99.90;;;;;;7375732;19;20429;-77
2022/05/08 09:27:12;;;;;;;2.90;2.33;;;22.30;99.90;;;;;;7378427;19;20316;-77
2022/05/08 09:29:37;;;;;;;3.35;2.50;;;22.40;99.90;;;;;;7277232;19;2004412;-77
2022/05/08 09:32:04;;;;;;;2.58;2.38;;;22.00;99.90;;;;;;7378261;19;20377;-78
2022/05/08 09:34:29;;;;;;;3.10;2.72;;;22.00;99.90;;;;;;7377307;19;20436;-77
2022/05/08 09:37:07;;;;;;;3.30;2.20;;;22.20;99.90;;;;;;7375018;19;21249;-77
2022/05/08 09:39:33;;;;;;;3.13;2.63;;;22.00;99.90;;;;;;7368625;19;20355;-77
2022/05/08 09:41:59;;;;;;;2.33;2.13;;;22.00;99.90;;;;;;7381737;19;20300;-78
2022/05/08 09:44:24;;;;;;;2.50;2.30;;;22.30;99.90;;;;;;7376378;19;20340;-81
2022/05/08 09:46:50;;;;;;;2.50;2.30;;;22.60;99.90;;;;;;7378289;19;20313;-77
2022/05/08 09:49:20;;;;;;;2.87;2.50;;;22.40;99.90;;;;;;7380132;19;20324;-78
2022/05/08 09:51:46;;;;;;;2.50;2.30;;;22.40;99.90;;;;;;7376803;19;20331;-76
2022/05/08 09:54:13;;;;;;;2.53;2.33;;;22.70;99.90;;;;;;7376990;19;20337;-78
2022/05/08 09:56:39;;;;;;;3.00;2.28;;;22.50;99.90;;;;;;7376424;19;20669;-77
2022/05/08 09:59:07;;;;;;;3.22;2.33;;;22.90;99.90;;;;;;7380470;19;20880;-77
2022/05/08 10:01:33;;;;;;;3.20;2.45;;;22.90;99.90;;;;;;7376837;19;20860;-77
2022/05/08 10:03:58;;;;;;;2.73;2.17;;;22.60;99.90;;;;;;7380882;19;20341;-77
2022/05/08 10:06:24;;;;;;;3.10;2.20;;;21.80;99.90;;;;;;7375306;19;21131;-77
2022/05/08 10:08:50;;;;;;;2.00;1.90;;;21.80;99.90;;;;;;7379526;19;20324;-78
2022/05/08 10:14:03;;;;;;;3.85;2.10;;;23.10;99.90;;;;;;7373385;19;21150;-77
2022/05/08 10:16:48;;;;;;;2.40;2.20;;;22.70;99.90;;;;;;7376555;19;20340;-78
2022/05/08 10:19:20;;;;;;;2.20;1.83;;;22.50;99.90;;;;;;7379846;19;20372;-77
2022/05/08 10:21:57;;;;;;;2.15;1.95;;;22.80;99.90;;;;;;7381134;19;20377;-78
2022/05/08 10:24:32;;;;;;;2.28;2.08;;;23.60;99.90;;;;;;7375823;19;20340;-78
2022/05/08 10:27:15;;;;;;;2.00;1.73;;;23.00;99.90;;;;;;7378278;19;20344;-78
2022/05/08 10:29:49;;;;;;;2.95;2.13;;;22.60;99.90;;;;;;7377772;19;21034;-78
2022/05/08 10:32:33;;;;;;;1.70;1.60;;;23.00;99.90;;;;;;7378184;19;20683;-80
2022/05/08 10:35:23;;;;;;;2.73;2.00;;;22.30;99.90;;;;;;7375584;19;20312;-76
2022/05/08 10:37:52;;;;;;;4.30;1.45;;;22.00;99.90;;;;;;7276488;19;2004325;-77
2022/05/08 10:40:24;;;;;;;3.25;1.85;;;22.10;99.90;;;;;;7374333;19;20345;-78
2022/05/08 10:42:56;;;;;;;3.40;1.50;;;22.30;99.90;;;;;;7378740;19;20333;-79
2022/05/08 10:45:31;;;;;;;1.88;1.63;;;22.50;99.90;;;;;;7370483;19;20352;-80
2022/05/08 10:47:57;;;;;;;2.25;1.80;;;22.60;99.90;;;;;;7369695;19;21490;-78
2022/05/08 10:50:23;;;;;;;1.70;1.60;;;22.90;99.90;;;;;;7363195;19;20341;-78
2022/05/08 10:52:50;;;;;;;1.57;1.43;;;23.20;99.90;;;;;;7371080;19;20347;-78
2022/05/08 10:55:20;;;;;;;1.90;1.50;;;23.40;99.90;;;;;;7367124;19;20360;-80
2022/05/08 10:57:50;;;;;;;1.67;1.58;;;23.30;99.90;;;;;;7370388;19;20341;-80
2022/05/08 11:00:18;;;;;;;2.22;1.70;;;23.70;99.90;;;;;;7369319;19;20355;-82
2022/05/08 11:02:54;;;;;;;1.42;1.33;;;24.30;99.90;;;;;;7370466;19;20344;-80
2022/05/08 11:05:25;;;;;;;3.00;1.65;;;24.20;99.90;;;;;;7368753;19;20367;-79
2022/05/08 11:07:57;;;;;;;1.73;1.60;;;24.10;99.90;;;;;;7375640;19;20423;-79
2022/05/08 11:10:31;;;;;;;1.48;1.35;;;23.60;99.90;;;;;;7371026;19;20352;-80
2022/05/08 11:13:02;;;;;;;1.50;1.40;;;23.80;99.60;;;;;;7373211;19;20336;-79
2022/05/08 11:15:28;;;;;;;1.73;1.48;;;23.90;98.70;;;;;;7369990;19;20324;-79
2022/05/08 11:18:15;;;;;;;1.50;1.40;;;24.20;99.50;;;;;;7373317;19;21142;-78
2022/05/08 11:20:43;;;;;;;1.50;1.40;;;24.60;97.50;;;;;;7380957;19;20381;-79
2022/05/08 11:23:16;;;;;;;1.50;1.40;;;24.80;96.20;;;;;;7381054;19;20365;-78
2022/05/08 11:25:48;;;;;;;1.63;1.50;;;25.30;96.90;;;;;;7379783;19;20344;-80
2022/05/08 11:28:17;;;;;;;1.50;1.40;;;24.10;91.60;;;;;;7380760;19;20359;-77
2022/05/08 11:30:43;;;;;;;1.85;1.55;;;24.40;93.10;;;;;;7378824;19;20317;-80
2022/05/08 11:36:07;;;;;;;1.40;1.30;;;24.00;92.40;;;;;;7372030;19;20316;-79
2022/05/08 11:38:45;;;;;;;1.60;1.40;;;24.50;93.90;;;;;;7276928;19;2004494;-80
2022/05/08 11:41:15;;;;;;;2.10;1.43;;;24.60;92.00;;;;;;7239644;19;2004478;-79
2022/05/08 11:43:42;;;;;;;2.23;1.30;;;25.80;93.40;;;;;;7370464;19;20892;-77
2022/05/08 11:46:08;;;;;;;1.50;1.40;;;26.60;90.70;;;;;;7368410;19;20340;-79
2022/05/08 11:48:40;;;;;;;1.38;1.20;;;26.60;89.40;;;;;;7371523;19;20408;-79
2022/05/08 11:51:10;;;;;;;3.05;1.40;;;26.90;86.80;;;;;;7368272;19;20355;-78
2022/05/08 11:53:49;;;;;;;1.33;1.23;;;27.00;86.40;;;;;;7367344;19;20356;-78
2022/05/08 11:56:21;;;;;;;2.00;1.33;;;27.10;84.70;;;;;;7348029;19;20348;-80
2022/05/08 11:58:47;;;;;;;1.43;1.33;;;26.80;87.40;;;;;;7371876;19;20368;-79
2022/05/08 12:01:33;;;;;;;2.78;1.30;;;26.20;79.90;;;;;;7369329;19;20336;-78
2022/05/08 12:04:28;;;;;;;1.40;1.30;;;26.00;87.50;;;;;;7270038;19;2004547;-78
2022/05/08 12:07:14;;;;;;;1.40;1.05;;;25.20;83.70;;;;;;7273387;19;2004528;-79
2022/05/08 12:09:43;;;;;;;1.13;1.13;;;25.50;85.90;;;;;;7272805;19;2004394;-78
2022/05/08 12:12:28;;;;;;;1.73;1.27;;;24.90;82.90;;;;;;7374226;19;20434;-79
2022/05/08 12:14:55;;;;;;;1.40;1.30;;;24.00;83.80;;;;;;7263409;19;2004642;-79
2022/05/08 12:17:21;;;;;;;4.10;1.50;;;24.50;88.50;;;;;;7371589;19;20339;-78
2022/05/08 12:20:11;;;;;;;1.73;1.40;;;24.00;86.50;;;;;;7367489;19;20356;-78
2022/05/08 12:22:36;;;;;;;2.50;1.47;;;24.10;86.40;;;;;;7368219;19;20339;-79
2022/05/08 12:25:04;;;;;;;2.80;1.75;;;24.10;88.20;;;;;;7367652;19;21255;-79
2022/05/08 12:27:30;;;;;;;1.73;1.35;;;23.30;85.30;;;;;;7371363;19;20364;-78
2022/05/08 12:29:56;;;;;;;2.83;1.50;;;23.20;89.10;;;;;;7369748;19;21370;-81
2022/05/08 12:32:22;;;;;;;1.38;1.27;;;23.60;88.80;;;;;;7369422;19;20353;-78
2022/05/08 12:34:48;;;;;;;3.13;1.42;;;23.70;90.00;;;;;;7365511;19;20373;-79
2022/05/08 12:37:14;;;;;;;2.05;1.42;;;23.60;88.50;;;;;;7369925;19;20375;-78
2022/05/08 12:39:40;;;;;;;1.45;1.35;;;24.00;90.00;;;;;;7362008;19;20357;-78
2022/05/08 12:42:06;;;;;;;1.55;1.45;;;24.40;87.70;;;;;;7368919;19;20349;-80
2022/05/08 12:44:33;;;;;;;1.33;1.23;;;24.20;87.40;;;;;;7365016;19;20337;-77
2022/05/08 12:46:59;;;;;;;2.38;1.20;;;24.50;88.80;;;;;;7373184;19;20902;-77
2022/05/08 12:49:25;;;;;;;1.83;1.35;;;25.70;89.70;;;;;;7392144;19;20316;-82
2022/05/08 12:51:51;;;;;;;1.77;1.43;;;26.50;85.30;;;;;;7387623;19;20355;-83
2022/05/08 12:54:16;;;;;;;2.63;1.80;;;27.20;81.40;;;;;;7386932;19;20344;-80
2022/05/08 12:56:44;;;;;;;1.85;1.67;;;26.70;79.30;;;;;;7388399;19;20934;-82
2022/05/08 13:01:54;;;;;;;2.35;1.48;;;26.70;76.10;;;;;;7367338;19;20365;-81
2022/05/08 13:04:19;;;;;;;3.17;1.40;;;27.50;82.50;;;;;;7386453;19;20344;-84
2022/05/08 13:06:46;;;;;;;2.90;1.60;;;27.10;76.50;;;;;;7383837;19;20312;-81
2022/05/08 13:09:11;;;;;;;1.65;1.33;;;26.20;74.90;;;;;;7393533;19;20357;-80
2022/05/08 13:11:37;;;;;;;1.42;1.30;;;25.00;74.80;;;;;;7393852;19;20316;-80
2022/05/08 13:14:03;;;;;;;1.57;1.47;;;24.60;81.30;;;;;;7384397;19;21020;-81